createdAt,value
2022-11-07T00:01:21.308Z,84.83154
2022-11-07T00:06:29.445Z,85.51213
2022-11-07T00:11:32.275Z,88.1158
2022-11-07T00:16:34.075Z,87.8778
2022-11-07T00:21:35.994Z,89.76333
2022-11-07T00:26:38.243Z,86.63307
2022-11-07T00:31:40.271Z,86.37084
2022-11-07T00:36:42.039Z,87.83605
2022-11-07T00:41:43.993Z,89.48286
2022-11-07T00:46:46.038Z,90.23514
2022-11-07T00:51:47.458Z,88.66589
2022-11-07T00:56:49.866Z,92.35306
2022-11-07T01:01:52.331Z,90.12336
2022-11-07T01:06:54.203Z,91.8697
2022-11-07T01:11:55.978Z,92.4613
2022-11-07T01:16:57.958Z,92.2726
2022-11-07T01:21:59.804Z,92.68524
2022-11-07T01:27:01.859Z,92.07972
2022-11-07T01:32:04.418Z,97.85444
2022-11-07T01:37:06.621Z,96.78912
2022-11-07T01:42:08.813Z,94.84518
2022-11-07T01:47:10.602Z,96.68966
2022-11-07T01:52:12.049Z,94.23766
2022-11-07T01:57:13.809Z,94.27293
2022-11-07T02:02:15.902Z,94.80418
2022-11-07T02:07:17.577Z,100
2022-11-07T02:12:19.031Z,97.26025
2022-11-07T02:17:20.854Z,94.80844
2022-11-07T02:22:22.310Z,93.67196
2022-11-07T02:27:24.122Z,95.66
2022-11-07T02:32:25.926Z,94.63706
2022-11-07T02:37:27.425Z,97.09273
2022-11-07T02:42:29.140Z,96.57428
2022-11-07T02:47:30.667Z,93.57296
2022-11-07T02:52:32.124Z,93.64991
2022-11-07T02:57:33.794Z,93.67228
2022-11-07T03:02:35.829Z,94.16461
2022-11-07T03:07:37.340Z,96.96658
2022-11-07T03:12:39.003Z,95.04828
2022-11-07T03:17:40.469Z,95.32527
2022-11-07T03:22:41.934Z,93.23778
2022-11-07T03:27:43.354Z,94.96438
2022-11-07T03:32:45.255Z,93.56458
2022-11-07T03:37:46.976Z,93.66834
2022-11-07T03:42:48.621Z,95.8235
2022-11-07T03:47:50.485Z,92.26486
2022-11-07T03:52:52.132Z,92.77687
2022-11-07T03:57:53.591Z,93.13014
2022-11-07T04:02:55.899Z,93.36853
2022-11-07T04:07:57.588Z,95.6046
2022-11-07T04:12:59.313Z,98.42214
2022-11-07T04:18:00.929Z,94.35519
2022-11-07T04:23:02.788Z,92.07612
2022-11-07T04:28:04.391Z,92.79814
2022-11-07T04:33:06.382Z,93.55302
2022-11-07T04:38:07.879Z,93.16648
2022-11-07T04:43:09.504Z,93.03562
2022-11-07T04:48:11.289Z,93.80175
2022-11-07T04:53:13.319Z,89.38773
2022-11-07T04:58:15.216Z,94.30639
2022-11-07T05:03:17.656Z,96.8203
2022-11-07T05:08:19.665Z,97.65714
2022-11-07T05:13:21.427Z,90.67072
2022-11-07T05:18:23.207Z,90.38742
2022-11-07T05:23:25.100Z,87.52704
2022-11-07T05:28:35.294Z,89.9653
2022-11-07T05:33:39.289Z,89.34193
2022-11-07T05:38:41.043Z,93.18211
2022-11-07T05:43:42.797Z,88.31961
2022-11-07T05:48:44.632Z,88.25071
2022-11-07T05:53:46.426Z,89.10287
2022-11-07T05:58:48.322Z,88.53451
2022-11-07T06:03:50.384Z,84.81352
2022-11-07T06:08:52.138Z,84.09737
2022-11-07T06:13:53.787Z,84.91407
2022-11-07T06:18:55.688Z,81.84414
2022-11-07T06:23:57.433Z,80.56134
2022-11-07T06:28:59.198Z,82.05936
2022-11-07T06:34:01.274Z,83.11115
2022-11-07T06:39:03.146Z,82.70365
2022-11-07T06:44:04.892Z,80.2689
2022-11-07T06:49:06.879Z,76.71288
2022-11-07T06:54:08.652Z,74.69996
2022-11-07T06:59:10.424Z,77.59907
2022-11-07T07:04:12.433Z,77.8462
2022-11-07T07:09:14.119Z,78.33979
2022-11-07T07:14:15.926Z,80.15029
2022-11-07T07:19:17.931Z,78.90152
2022-11-07T07:24:19.735Z,79.12776
2022-11-07T07:29:21.643Z,77.576
2022-11-07T07:34:23.517Z,77.87359
2022-11-07T07:39:25.231Z,79.50509
2022-11-07T07:44:26.679Z,81.45031
2022-11-07T07:49:28.296Z,81.37512
2022-11-07T07:54:30.065Z,82.88883
2022-11-07T07:59:31.589Z,79.73401
2022-11-07T08:04:33.297Z,81.30791
2022-11-07T08:09:34.981Z,80.92433
2022-11-07T08:14:36.580Z,79.34896
2022-11-07T08:19:38.330Z,76.41873
2022-11-07T08:24:39.815Z,77.20774
2022-11-07T08:29:41.378Z,76.31965
2022-11-07T08:34:43.452Z,76.87528
2022-11-07T08:39:44.899Z,75.05423
2022-11-07T08:44:46.374Z,74.93093
2022-11-07T08:49:48.196Z,73.37439
2022-11-07T08:54:49.607Z,73.24223
2022-11-07T08:59:51.107Z,74.89206
2022-11-07T09:04:53.182Z,71.51732
2022-11-07T09:09:54.993Z,71.42056
2022-11-07T09:14:56.530Z,70.2645
2022-11-07T09:19:58.199Z,70.23163
2022-11-07T09:25:00.054Z,68.79935
2022-11-07T09:30:02.051Z,67.94082
2022-11-07T09:35:05.181Z,66.59422
2022-11-07T09:40:07.373Z,67.63312
2022-11-07T09:45:09.369Z,69.03447
2022-11-07T09:50:11.477Z,68.89479
2022-11-07T09:55:13.473Z,68.81349
2022-11-07T10:00:16.088Z,68.66165
2022-11-07T10:05:17.973Z,68.12698
2022-11-07T10:10:19.865Z,68.4745
2022-11-07T10:15:21.739Z,68.07633
2022-11-07T10:20:25.156Z,68.48073
2022-11-07T10:25:26.936Z,71.86738
2022-11-07T10:30:28.529Z,67.9459
2022-11-07T10:35:30.273Z,66.59052
2022-11-07T10:40:31.755Z,68.91284
2022-11-07T10:45:33.330Z,69.17984
2022-11-07T10:50:34.871Z,69.45996
2022-11-07T10:55:36.477Z,69.75934
2022-11-07T11:00:38.121Z,70.31253
2022-11-07T11:05:40.022Z,69.51773
2022-11-07T11:10:41.481Z,67.94566
2022-11-07T11:15:43.139Z,68.69106
2022-11-07T11:20:44.748Z,67.48293
2022-11-07T11:25:46.331Z,67.69782
2022-11-07T11:30:47.995Z,69.16599
2022-11-07T11:35:49.755Z,66.62609
2022-11-07T11:40:53.359Z,68.59899
2022-11-07T11:45:57.234Z,66.05682
2022-11-07T11:50:58.726Z,67.04384
2022-11-07T11:56:00.169Z,67.22236
2022-11-07T12:01:02.063Z,66.6065
2022-11-07T12:06:03.810Z,66.95908
2022-11-07T12:11:05.278Z,65.81515
2022-11-07T12:16:06.734Z,67.77344
2022-11-07T12:21:08.474Z,66.09963
2022-11-07T12:26:10.270Z,65.5039
2022-11-07T12:31:12.148Z,67.53157
2022-11-07T12:36:14.332Z,69.06762
2022-11-07T12:41:16.257Z,69.35086
2022-11-07T12:46:18.168Z,75.38323
2022-11-07T12:51:19.994Z,75.37714
2022-11-07T12:56:21.980Z,76.62071
2022-11-07T13:01:23.921Z,83.34954
2022-11-07T13:06:26.212Z,83.33119
2022-11-07T13:11:27.879Z,83.39196
2022-11-07T13:16:29.564Z,85.2402
2022-11-07T13:21:31.372Z,85.66297
2022-11-07T13:26:47.038Z,86.29997
2022-11-07T13:31:49.659Z,86.27652
2022-11-07T13:36:51.650Z,87.18569
2022-11-07T13:41:53.655Z,89.0045
2022-11-07T13:46:55.431Z,91.07632
2022-11-07T13:51:57.390Z,96.29923
2022-11-07T13:56:59.449Z,96.99464
2022-11-07T14:02:01.532Z,97.08986
2022-11-07T14:07:03.750Z,96.56934
2022-11-07T14:12:05.749Z,98.82732
2022-11-07T14:17:07.579Z,91.98314
2022-11-07T14:22:14.563Z,98.58005
2022-11-07T14:27:16.562Z,96.31441
2022-11-07T14:32:18.361Z,96.85244
2022-11-07T14:37:20.480Z,97.81239
2022-11-07T14:42:22.319Z,96.72735
2022-11-07T14:47:24.225Z,94.77099
2022-11-07T14:52:26.343Z,95.54212
2022-11-07T14:57:28.446Z,94.32241
2022-11-07T15:02:30.192Z,93.42654
2022-11-07T15:07:32.146Z,91.73975
2022-11-07T15:12:33.600Z,94.83901
2022-11-07T15:17:39.957Z,91.99271
2022-11-07T15:22:42.159Z,94.53107
2022-11-07T15:27:44.009Z,90.15042
2022-11-07T15:32:46.035Z,92.01338
2022-11-07T15:37:48.133Z,91.62297
2022-11-07T15:42:50.353Z,92.62277
2022-11-07T15:47:51.939Z,92.78389
2022-11-07T15:52:54.104Z,93.27987
2022-11-07T15:57:55.889Z,93.7508
2022-11-07T16:02:57.898Z,89.59663
2022-11-07T16:07:59.966Z,93.65478
2022-11-07T16:13:05.021Z,94.19441
2022-11-07T16:18:06.965Z,93.15895
2022-11-07T16:23:08.916Z,93.69538
2022-11-07T16:28:10.495Z,93.73952
2022-11-07T16:33:12.273Z,93.21476
2022-11-07T16:38:15.277Z,93.21518
2022-11-07T16:43:17.070Z,94.02734
2022-11-07T16:48:18.877Z,94.51825
2022-11-07T16:53:20.725Z,95.98468
2022-11-07T16:58:22.277Z,91.42932
2022-11-07T17:03:24.000Z,91.92909
2022-11-07T17:08:25.924Z,93.01073
2022-11-07T17:13:27.655Z,97.29545
2022-11-07T17:18:29.650Z,95.684
2022-11-07T17:23:31.333Z,94.01267
2022-11-07T17:28:33.056Z,96.89111
2022-11-07T17:33:34.507Z,99.38084
2022-11-07T17:38:36.526Z,96.36624
2022-11-07T17:43:38.115Z,99.08322
2022-11-07T17:48:44.763Z,98.90531
2022-11-07T17:53:49.513Z,99.10659
2022-11-07T17:58:51.340Z,98.84284
2022-11-07T18:03:53.101Z,99.38245
2022-11-07T18:08:55.798Z,96.66807
2022-11-07T18:13:57.863Z,96.39133
2022-11-07T18:18:59.620Z,97.21408
2022-11-07T18:24:01.677Z,99.72067
2022-11-07T18:29:03.423Z,96.98034
2022-11-07T18:34:04.912Z,100
2022-11-07T18:39:07.152Z,100
2022-11-07T18:44:08.957Z,98.79188
2022-11-07T18:49:10.868Z,100
2022-11-07T18:54:12.418Z,100
2022-11-07T18:59:14.394Z,100
2022-11-07T19:04:16.214Z,100
2022-11-07T19:09:20.626Z,100
2022-11-07T19:14:24.238Z,100
2022-11-07T19:19:26.036Z,100
2022-11-07T19:24:28.057Z,100
2022-11-07T19:29:30.159Z,100
2022-11-07T19:34:31.972Z,100
2022-11-07T19:39:33.816Z,100
2022-11-07T19:44:35.623Z,100
2022-11-07T19:49:37.091Z,100
2022-11-07T19:54:38.896Z,100
2022-11-07T20:04:41.549Z,98.9268
2022-11-07T20:09:43.331Z,100
2022-11-07T20:14:44.995Z,100
2022-11-07T20:19:47.117Z,100
2022-11-07T20:24:48.879Z,100
2022-11-07T20:29:50.690Z,100
2022-11-07T20:34:53.947Z,99.67776
2022-11-07T20:39:55.864Z,100
2022-11-07T20:44:57.535Z,100
2022-11-07T20:49:59.344Z,100
2022-11-07T20:55:01.122Z,100
2022-11-07T21:00:02.921Z,100
2022-11-07T21:05:20.253Z,100
2022-11-07T21:10:22.145Z,100
2022-11-07T21:15:23.606Z,100
2022-11-07T21:20:25.310Z,100
2022-11-07T21:25:26.762Z,100
2022-11-07T21:30:28.249Z,100
2022-11-07T21:35:33.505Z,100
2022-11-07T21:40:35.250Z,100
2022-11-07T21:45:37.069Z,100
2022-11-07T21:50:44.620Z,100
2022-11-07T21:55:47.068Z,100
2022-11-07T22:00:49.047Z,100
2022-11-07T22:05:51.070Z,100
2022-11-07T22:10:52.950Z,100
2022-11-07T22:15:54.883Z,100
2022-11-07T22:20:56.905Z,100
2022-11-07T22:25:58.662Z,100
2022-11-07T22:31:00.129Z,100
2022-11-07T22:36:01.876Z,100
2022-11-07T22:41:03.681Z,100
2022-11-07T22:46:05.458Z,100
2022-11-07T22:51:07.255Z,100
2022-11-07T22:56:08.938Z,100
2022-11-07T23:01:10.704Z,100
2022-11-07T23:06:12.955Z,100
2022-11-07T23:11:44.861Z,100
2022-11-07T23:16:47.713Z,100
2022-11-07T23:21:49.426Z,100
2022-11-07T23:26:51.049Z,100
2022-11-07T23:31:52.691Z,100
2022-11-07T23:36:54.529Z,100
2022-11-07T23:41:56.321Z,100
2022-11-07T23:46:58.142Z,100
2022-11-07T23:52:00.111Z,100
2022-11-07T23:57:01.948Z,100
